sensor_id;sensor_type;location;lat;lon;timestamp;P1;durP1;ratioP1;P2;durP2;ratioP2
52208;SDS011;38507;53.132;6.394;2023-07-20T00:01:58;4.65;;;2.53;;
52208;SDS011;38507;53.132;6.394;2023-07-20T00:04:24;4.72;;;2.70;;
52208;SDS011;38507;53.132;6.394;2023-07-20T00:06:50;4.53;;;2.63;;
52208;SDS011;38507;53.132;6.394;2023-07-20T00:09:15;3.00;;;2.65;;
52208;SDS011;38507;53.132;6.394;2023-07-20T00:11:47;3.72;;;2.65;;
52208;SDS011;38507;53.132;6.394;2023-07-20T00:14:14;6.32;;;2.88;;
52208;SDS011;38507;53.132;6.394;2023-07-20T00:16:40;4.30;;;2.90;;
52208;SDS011;38507;53.132;6.394;2023-07-20T00:19:06;5.00;;;3.28;;
52208;SDS011;38507;53.132;6.394;2023-07-20T00:21:32;4.30;;;3.00;;
52208;SDS011;38507;53.132;6.394;2023-07-20T00:23:57;4.00;;;3.20;;
52208;SDS011;38507;53.132;6.394;2023-07-20T00:26:23;5.20;;;2.92;;
52208;SDS011;38507;53.132;6.394;2023-07-20T00:28:49;6.10;;;3.28;;
52208;SDS011;38507;53.132;6.394;2023-07-20T00:31:16;4.05;;;3.25;;
52208;SDS011;38507;53.132;6.394;2023-07-20T00:33:42;4.55;;;3.60;;
52208;SDS011;38507;53.132;6.394;2023-07-20T00:36:07;5.78;;;3.53;;
52208;SDS011;38507;53.132;6.394;2023-07-20T00:38:33;6.20;;;3.83;;
52208;SDS011;38507;53.132;6.394;2023-07-20T00:40:58;4.55;;;3.33;;
52208;SDS011;38507;53.132;6.394;2023-07-20T00:43:24;5.15;;;3.58;;
52208;SDS011;38507;53.132;6.394;2023-07-20T00:45:50;5.22;;;3.90;;
52208;SDS011;38507;53.132;6.394;2023-07-20T00:48:16;4.03;;;2.80;;
52208;SDS011;38507;53.132;6.394;2023-07-20T00:50:41;5.45;;;3.35;;
52208;SDS011;38507;53.132;6.394;2023-07-20T00:53:08;5.13;;;3.30;;
52208;SDS011;38507;53.132;6.394;2023-07-20T00:55:34;5.53;;;3.53;;
52208;SDS011;38507;53.132;6.394;2023-07-20T00:57:59;4.53;;;3.47;;
52208;SDS011;38507;53.132;6.394;2023-07-20T01:00:26;4.65;;;3.38;;
52208;SDS011;38507;53.132;6.394;2023-07-20T01:02:52;5.80;;;3.50;;
52208;SDS011;38507;53.132;6.394;2023-07-20T01:05:18;4.30;;;3.28;;
52208;SDS011;38507;53.132;6.394;2023-07-20T01:13:09;5.68;;;3.55;;
52208;SDS011;38507;53.132;6.394;2023-07-20T01:15:36;7.00;;;3.92;;
52208;SDS011;38507;53.132;6.394;2023-07-20T01:18:02;7.25;;;4.03;;
52208;SDS011;38507;53.132;6.394;2023-07-20T01:20:29;5.78;;;3.60;;
52208;SDS011;38507;53.132;6.394;2023-07-20T01:23:15;5.97;;;3.38;;
52208;SDS011;38507;53.132;6.394;2023-07-20T01:31:23;5.93;;;3.47;;
52208;SDS011;38507;53.132;6.394;2023-07-20T01:33:52;4.38;;;3.17;;
52208;SDS011;38507;53.132;6.394;2023-07-20T01:36:21;4.22;;;3.20;;
52208;SDS011;38507;53.132;6.394;2023-07-20T01:38:47;4.82;;;3.05;;
52208;SDS011;38507;53.132;6.394;2023-07-20T01:41:14;4.13;;;3.10;;
52208;SDS011;38507;53.132;6.394;2023-07-20T01:43:40;4.15;;;2.95;;
52208;SDS011;38507;53.132;6.394;2023-07-20T01:46:07;5.40;;;3.10;;
52208;SDS011;38507;53.132;6.394;2023-07-20T01:48:33;5.28;;;3.00;;
52208;SDS011;38507;53.132;6.394;2023-07-20T01:50:59;6.25;;;3.53;;
52208;SDS011;38507;53.132;6.394;2023-07-20T01:53:24;5.00;;;2.90;;
52208;SDS011;38507;53.132;6.394;2023-07-20T01:55:52;9.57;;;3.30;;
52208;SDS011;38507;53.132;6.394;2023-07-20T01:58:21;5.03;;;3.20;;
52208;SDS011;38507;53.132;6.394;2023-07-20T02:00:47;4.05;;;2.95;;
52208;SDS011;38507;53.132;6.394;2023-07-20T02:03:13;4.15;;;3.20;;
52208;SDS011;38507;53.132;6.394;2023-07-20T02:05:38;4.82;;;2.60;;
52208;SDS011;38507;53.132;6.394;2023-07-20T02:08:04;7.82;;;3.17;;
52208;SDS011;38507;53.132;6.394;2023-07-20T02:10:30;5.05;;;2.83;;
52208;SDS011;38507;53.132;6.394;2023-07-20T02:12:56;5.82;;;2.70;;
52208;SDS011;38507;53.132;6.394;2023-07-20T02:15:21;6.18;;;3.13;;
52208;SDS011;38507;53.132;6.394;2023-07-20T02:17:47;3.40;;;2.55;;
52208;SDS011;38507;53.132;6.394;2023-07-20T02:20:13;3.50;;;2.38;;
52208;SDS011;38507;53.132;6.394;2023-07-20T02:22:39;6.20;;;3.40;;
52208;SDS011;38507;53.132;6.394;2023-07-20T02:25:05;4.90;;;2.55;;
52208;SDS011;38507;53.132;6.394;2023-07-20T02:27:32;4.57;;;2.88;;
52208;SDS011;38507;53.132;6.394;2023-07-20T02:30:02;3.65;;;2.42;;
52208;SDS011;38507;53.132;6.394;2023-07-20T02:32:28;3.70;;;2.70;;
52208;SDS011;38507;53.132;6.394;2023-07-20T02:34:54;3.25;;;2.20;;
52208;SDS011;38507;53.132;6.394;2023-07-20T02:37:20;26.23;;;2.20;;
52208;SDS011;38507;53.132;6.394;2023-07-20T02:39:46;1.60;;;1.17;;
52208;SDS011;38507;53.132;6.394;2023-07-20T02:42:11;5.80;;;1.17;;
52208;SDS011;38507;53.132;6.394;2023-07-20T02:44:38;2.42;;;1.50;;
52208;SDS011;38507;53.132;6.394;2023-07-20T02:47:03;3.13;;;1.80;;
52208;SDS011;38507;53.132;6.394;2023-07-20T02:49:29;4.63;;;2.63;;
52208;SDS011;38507;53.132;6.394;2023-07-20T02:51:55;5.20;;;2.00;;
52208;SDS011;38507;53.132;6.394;2023-07-20T02:54:20;4.25;;;2.40;;
52208;SDS011;38507;53.132;6.394;2023-07-20T02:56:46;3.70;;;2.28;;
52208;SDS011;38507;53.132;6.394;2023-07-20T02:59:12;4.13;;;2.35;;
52208;SDS011;38507;53.132;6.394;2023-07-20T03:01:37;3.53;;;2.20;;
52208;SDS011;38507;53.132;6.394;2023-07-20T03:04:03;3.58;;;1.73;;
52208;SDS011;38507;53.132;6.394;2023-07-20T03:06:29;2.30;;;1.70;;
52208;SDS011;38507;53.132;6.394;2023-07-20T03:08:55;6.78;;;2.20;;
52208;SDS011;38507;53.132;6.394;2023-07-20T03:11:21;4.07;;;2.00;;
52208;SDS011;38507;53.132;6.394;2023-07-20T03:13:47;4.63;;;2.00;;
52208;SDS011;38507;53.132;6.394;2023-07-20T03:16:13;3.35;;;1.65;;
52208;SDS011;38507;53.132;6.394;2023-07-20T03:18:43;4.10;;;1.60;;
52208;SDS011;38507;53.132;6.394;2023-07-20T03:21:09;2.28;;;1.60;;
52208;SDS011;38507;53.132;6.394;2023-07-20T03:23:41;3.53;;;1.60;;
52208;SDS011;38507;53.132;6.394;2023-07-20T03:26:07;4.35;;;1.55;;
52208;SDS011;38507;53.132;6.394;2023-07-20T03:28:36;2.03;;;1.30;;
52208;SDS011;38507;53.132;6.394;2023-07-20T03:31:05;3.65;;;1.63;;
52208;SDS011;38507;53.132;6.394;2023-07-20T03:33:31;1.10;;;0.90;;
52208;SDS011;38507;53.132;6.394;2023-07-20T03:35:57;1.70;;;1.30;;
52208;SDS011;38507;53.132;6.394;2023-07-20T03:38:24;1.75;;;1.20;;
52208;SDS011;38507;53.132;6.394;2023-07-20T03:40:51;3.05;;;1.45;;
52208;SDS011;38507;53.132;6.394;2023-07-20T03:43:17;2.63;;;1.83;;
52208;SDS011;38507;53.132;6.394;2023-07-20T03:45:43;3.60;;;1.50;;
52208;SDS011;38507;53.132;6.394;2023-07-20T03:48:10;2.17;;;1.38;;
52208;SDS011;38507;53.132;6.394;2023-07-20T03:50:36;1.60;;;1.20;;
52208;SDS011;38507;53.132;6.394;2023-07-20T03:53:02;1.38;;;1.10;;
52208;SDS011;38507;53.132;6.394;2023-07-20T03:55:28;1.90;;;1.50;;
52208;SDS011;38507;53.132;6.394;2023-07-20T03:57:53;2.28;;;1.63;;
52208;SDS011;38507;53.132;6.394;2023-07-20T04:00:19;2.03;;;1.30;;
52208;SDS011;38507;53.132;6.394;2023-07-20T04:02:45;1.98;;;1.35;;
52208;SDS011;38507;53.132;6.394;2023-07-20T04:05:10;1.90;;;1.40;;
52208;SDS011;38507;53.132;6.394;2023-07-20T04:07:36;3.60;;;1.50;;
52208;SDS011;38507;53.132;6.394;2023-07-20T04:10:02;4.82;;;1.70;;
52208;SDS011;38507;53.132;6.394;2023-07-20T04:12:27;2.47;;;1.38;;
52208;SDS011;38507;53.132;6.394;2023-07-20T04:14:53;3.15;;;1.42;;
52208;SDS011;38507;53.132;6.394;2023-07-20T04:17:19;3.42;;;1.50;;
52208;SDS011;38507;53.132;6.394;2023-07-20T04:19:44;2.30;;;1.48;;
52208;SDS011;38507;53.132;6.394;2023-07-20T04:22:10;3.55;;;1.58;;
52208;SDS011;38507;53.132;6.394;2023-07-20T04:24:35;1.90;;;1.42;;
52208;SDS011;38507;53.132;6.394;2023-07-20T04:27:01;2.08;;;1.38;;
52208;SDS011;38507;53.132;6.394;2023-07-20T04:29:27;3.30;;;1.38;;
52208;SDS011;38507;53.132;6.394;2023-07-20T04:31:53;2.20;;;1.55;;
52208;SDS011;38507;53.132;6.394;2023-07-20T04:34:18;2.38;;;1.48;;
52208;SDS011;38507;53.132;6.394;2023-07-20T04:36:44;2.92;;;1.80;;
52208;SDS011;38507;53.132;6.394;2023-07-20T04:39:10;2.70;;;1.90;;
52208;SDS011;38507;53.132;6.394;2023-07-20T04:41:36;2.78;;;1.90;;
52208;SDS011;38507;53.132;6.394;2023-07-20T04:44:02;3.40;;;2.55;;
52208;SDS011;38507;53.132;6.394;2023-07-20T04:46:28;4.72;;;2.65;;
52208;SDS011;38507;53.132;6.394;2023-07-20T04:48:53;4.30;;;3.30;;
52208;SDS011;38507;53.132;6.394;2023-07-20T04:51:19;8.00;;;3.30;;
52208;SDS011;38507;53.132;6.394;2023-07-20T04:53:46;4.15;;;3.17;;
52208;SDS011;38507;53.132;6.394;2023-07-20T04:56:12;4.85;;;2.83;;
52208;SDS011;38507;53.132;6.394;2023-07-20T04:58:37;4.47;;;3.05;;
52208;SDS011;38507;53.132;6.394;2023-07-20T05:01:03;4.57;;;2.80;;
52208;SDS011;38507;53.132;6.394;2023-07-20T05:03:29;6.07;;;3.45;;
52208;SDS011;38507;53.132;6.394;2023-07-20T05:05:54;5.00;;;3.25;;
52208;SDS011;38507;53.132;6.394;2023-07-20T05:08:20;5.03;;;3.63;;
52208;SDS011;38507;53.132;6.394;2023-07-20T05:10:47;4.00;;;3.30;;
52208;SDS011;38507;53.132;6.394;2023-07-20T05:13:13;5.50;;;4.22;;
52208;SDS011;38507;53.132;6.394;2023-07-20T05:15:39;5.65;;;4.03;;
52208;SDS011;38507;53.132;6.394;2023-07-20T05:18:05;5.38;;;3.60;;
52208;SDS011;38507;53.132;6.394;2023-07-20T05:20:31;4.57;;;3.08;;
52208;SDS011;38507;53.132;6.394;2023-07-20T05:22:58;4.10;;;2.97;;
52208;SDS011;38507;53.132;6.394;2023-07-20T05:25:24;6.43;;;3.65;;
52208;SDS011;38507;53.132;6.394;2023-07-20T05:27:50;5.82;;;3.80;;
52208;SDS011;38507;53.132;6.394;2023-07-20T05:30:17;6.43;;;3.78;;
52208;SDS011;38507;53.132;6.394;2023-07-20T05:32:44;7.38;;;3.45;;
52208;SDS011;38507;53.132;6.394;2023-07-20T05:35:12;9.05;;;4.45;;
52208;SDS011;38507;53.132;6.394;2023-07-20T05:37:39;10.02;;;4.15;;
52208;SDS011;38507;53.132;6.394;2023-07-20T05:40:05;8.38;;;3.75;;
52208;SDS011;38507;53.132;6.394;2023-07-20T05:42:32;6.57;;;4.03;;
52208;SDS011;38507;53.132;6.394;2023-07-20T05:44:58;7.07;;;4.38;;
52208;SDS011;38507;53.132;6.394;2023-07-20T05:47:24;9.05;;;3.83;;
52208;SDS011;38507;53.132;6.394;2023-07-20T05:49:49;6.75;;;3.63;;
52208;SDS011;38507;53.132;6.394;2023-07-20T05:52:15;14.43;;;3.92;;
52208;SDS011;38507;53.132;6.394;2023-07-20T05:54:41;3.95;;;3.45;;
52208;SDS011;38507;53.132;6.394;2023-07-20T05:57:07;9.18;;;2.85;;
52208;SDS011;38507;53.132;6.394;2023-07-20T05:59:33;9.23;;;3.05;;
52208;SDS011;38507;53.132;6.394;2023-07-20T06:01:58;4.10;;;2.70;;
52208;SDS011;38507;53.132;6.394;2023-07-20T06:04:24;5.65;;;2.80;;
52208;SDS011;38507;53.132;6.394;2023-07-20T06:06:49;3.63;;;2.65;;
52208;SDS011;38507;53.132;6.394;2023-07-20T06:09:15;5.45;;;2.60;;
52208;SDS011;38507;53.132;6.394;2023-07-20T06:11:41;5.57;;;2.38;;
52208;SDS011;38507;53.132;6.394;2023-07-20T06:14:06;6.20;;;2.90;;
52208;SDS011;38507;53.132;6.394;2023-07-20T06:16:32;8.25;;;2.90;;
52208;SDS011;38507;53.132;6.394;2023-07-20T06:18:59;5.13;;;2.30;;
52208;SDS011;38507;53.132;6.394;2023-07-20T06:21:25;7.43;;;2.10;;
52208;SDS011;38507;53.132;6.394;2023-07-20T06:23:50;4.40;;;1.80;;
52208;SDS011;38507;53.132;6.394;2023-07-20T06:26:16;3.67;;;1.50;;
52208;SDS011;38507;53.132;6.394;2023-07-20T06:28:42;5.00;;;1.50;;
52208;SDS011;38507;53.132;6.394;2023-07-20T06:31:07;4.05;;;1.60;;
52208;SDS011;38507;53.132;6.394;2023-07-20T06:33:33;7.07;;;1.27;;
52208;SDS011;38507;53.132;6.394;2023-07-20T06:35:59;5.25;;;1.52;;
52208;SDS011;38507;53.132;6.394;2023-07-20T06:38:26;6.18;;;1.70;;
52208;SDS011;38507;53.132;6.394;2023-07-20T06:40:58;8.35;;;1.50;;
52208;SDS011;38507;53.132;6.394;2023-07-20T06:43:24;7.90;;;1.35;;
52208;SDS011;38507;53.132;6.394;2023-07-20T06:45:52;5.70;;;1.45;;
52208;SDS011;38507;53.132;6.394;2023-07-20T06:48:18;2.95;;;1.05;;
52208;SDS011;38507;53.132;6.394;2023-07-20T06:50:44;4.60;;;1.27;;
52208;SDS011;38507;53.132;6.394;2023-07-20T06:53:10;6.43;;;1.35;;
52208;SDS011;38507;53.132;6.394;2023-07-20T06:55:35;13.18;;;1.30;;
52208;SDS011;38507;53.132;6.394;2023-07-20T06:58:01;5.05;;;1.13;;
52208;SDS011;38507;53.132;6.394;2023-07-20T07:00:28;5.63;;;1.77;;
52208;SDS011;38507;53.132;6.394;2023-07-20T07:02:53;3.92;;;1.10;;
52208;SDS011;38507;53.132;6.394;2023-07-20T07:05:19;6.20;;;1.45;;
52208;SDS011;38507;53.132;6.394;2023-07-20T07:07:45;3.60;;;1.08;;
52208;SDS011;38507;53.132;6.394;2023-07-20T07:10:10;3.70;;;1.48;;
52208;SDS011;38507;53.132;6.394;2023-07-20T07:12:36;4.05;;;0.85;;
52208;SDS011;38507;53.132;6.394;2023-07-20T07:15:02;5.65;;;1.30;;
52208;SDS011;38507;53.132;6.394;2023-07-20T07:17:31;2.45;;;0.80;;
52208;SDS011;38507;53.132;6.394;2023-07-20T07:19:57;3.70;;;0.90;;
52208;SDS011;38507;53.132;6.394;2023-07-20T07:22:23;7.10;;;1.30;;
52208;SDS011;38507;53.132;6.394;2023-07-20T07:24:50;6.25;;;1.60;;
52208;SDS011;38507;53.132;6.394;2023-07-20T07:27:16;5.75;;;1.00;;
52208;SDS011;38507;53.132;6.394;2023-07-20T07:29:42;5.20;;;1.00;;
52208;SDS011;38507;53.132;6.394;2023-07-20T07:32:11;4.38;;;1.40;;
52208;SDS011;38507;53.132;6.394;2023-07-20T07:34:37;4.15;;;1.42;;
52208;SDS011;38507;53.132;6.394;2023-07-20T07:37:04;4.55;;;1.38;;
52208;SDS011;38507;53.132;6.394;2023-07-20T07:39:30;4.10;;;1.70;;
52208;SDS011;38507;53.132;6.394;2023-07-20T07:41:56;4.38;;;1.15;;
52208;SDS011;38507;53.132;6.394;2023-07-20T07:44:22;4.90;;;1.50;;
52208;SDS011;38507;53.132;6.394;2023-07-20T07:46:48;3.78;;;1.67;;
52208;SDS011;38507;53.132;6.394;2023-07-20T07:49:14;6.40;;;1.50;;
52208;SDS011;38507;53.132;6.394;2023-07-20T07:51:40;4.10;;;1.45;;
52208;SDS011;38507;53.132;6.394;2023-07-20T07:54:06;5.18;;;1.60;;
52208;SDS011;38507;53.132;6.394;2023-07-20T07:56:32;5.38;;;1.88;;
52208;SDS011;38507;53.132;6.394;2023-07-20T07:58:57;8.52;;;1.85;;
52208;SDS011;38507;53.132;6.394;2023-07-20T08:01:23;3.67;;;1.40;;
52208;SDS011;38507;53.132;6.394;2023-07-20T08:03:49;6.07;;;1.50;;
52208;SDS011;38507;53.132;6.394;2023-07-20T08:06:14;7.70;;;1.55;;
52208;SDS011;38507;53.132;6.394;2023-07-20T08:08:41;5.32;;;1.90;;
52208;SDS011;38507;53.132;6.394;2023-07-20T08:11:07;5.18;;;1.40;;
52208;SDS011;38507;53.132;6.394;2023-07-20T08:13:33;7.65;;;1.95;;
52208;SDS011;38507;53.132;6.394;2023-07-20T08:16:00;4.00;;;1.45;;
52208;SDS011;38507;53.132;6.394;2023-07-20T08:18:29;4.70;;;1.52;;
52208;SDS011;38507;53.132;6.394;2023-07-20T08:20:55;6.97;;;1.40;;
52208;SDS011;38507;53.132;6.394;2023-07-20T08:23:20;5.65;;;1.45;;
52208;SDS011;38507;53.132;6.394;2023-07-20T08:25:47;8.38;;;1.80;;
52208;SDS011;38507;53.132;6.394;2023-07-20T08:28:14;5.18;;;1.50;;
52208;SDS011;38507;53.132;6.394;2023-07-20T08:30:40;7.63;;;1.20;;
52208;SDS011;38507;53.132;6.394;2023-07-20T08:33:10;12.45;;;1.67;;
52208;SDS011;38507;53.132;6.394;2023-07-20T08:35:37;5.90;;;1.77;;
52208;SDS011;38507;53.132;6.394;2023-07-20T08:38:03;7.85;;;1.95;;
52208;SDS011;38507;53.132;6.394;2023-07-20T08:40:30;6.80;;;1.50;;
52208;SDS011;38507;53.132;6.394;2023-07-20T08:42:57;4.03;;;1.20;;
52208;SDS011;38507;53.132;6.394;2023-07-20T08:45:26;5.07;;;1.52;;
52208;SDS011;38507;53.132;6.394;2023-07-20T08:47:54;5.03;;;1.42;;
52208;SDS011;38507;53.132;6.394;2023-07-20T08:50:23;4.68;;;1.38;;
52208;SDS011;38507;53.132;6.394;2023-07-20T08:52:52;4.85;;;1.08;;
52208;SDS011;38507;53.132;6.394;2023-07-20T08:55:20;4.38;;;1.10;;
52208;SDS011;38507;53.132;6.394;2023-07-20T08:57:47;4.95;;;0.93;;
52208;SDS011;38507;53.132;6.394;2023-07-20T09:00:15;4.93;;;1.17;;
52208;SDS011;38507;53.132;6.394;2023-07-20T09:02:45;3.70;;;0.80;;
52208;SDS011;38507;53.132;6.394;2023-07-20T09:05:11;3.05;;;0.60;;
52208;SDS011;38507;53.132;6.394;2023-07-20T09:07:39;4.03;;;0.88;;
52208;SDS011;38507;53.132;6.394;2023-07-20T09:10:06;3.17;;;0.70;;
52208;SDS011;38507;53.132;6.394;2023-07-20T09:12:35;1.80;;;0.95;;
52208;SDS011;38507;53.132;6.394;2023-07-20T09:15:02;2.17;;;0.77;;
52208;SDS011;38507;53.132;6.394;2023-07-20T09:17:28;5.20;;;0.70;;
52208;SDS011;38507;53.132;6.394;2023-07-20T09:19:54;3.00;;;0.80;;
52208;SDS011;38507;53.132;6.394;2023-07-20T09:22:20;4.97;;;1.15;;
52208;SDS011;38507;53.132;6.394;2023-07-20T09:24:46;2.97;;;0.80;;
52208;SDS011;38507;53.132;6.394;2023-07-20T09:27:11;2.58;;;0.65;;
52208;SDS011;38507;53.132;6.394;2023-07-20T09:29:50;3.63;;;0.75;;
52208;SDS011;38507;53.132;6.394;2023-07-20T09:32:20;4.45;;;1.10;;
52208;SDS011;38507;53.132;6.394;2023-07-20T09:34:46;3.75;;;0.98;;
52208;SDS011;38507;53.132;6.394;2023-07-20T09:37:12;3.22;;;0.60;;
52208;SDS011;38507;53.132;6.394;2023-07-20T09:39:44;3.38;;;0.60;;
52208;SDS011;38507;53.132;6.394;2023-07-20T09:42:11;4.05;;;0.60;;
52208;SDS011;38507;53.132;6.394;2023-07-20T09:44:38;3.15;;;0.80;;
52208;SDS011;38507;53.132;6.394;2023-07-20T09:47:05;2.03;;;0.60;;
52208;SDS011;38507;53.132;6.394;2023-07-20T09:49:31;2.60;;;0.50;;
52208;SDS011;38507;53.132;6.394;2023-07-20T09:51:59;5.75;;;0.80;;
52208;SDS011;38507;53.132;6.394;2023-07-20T09:54:27;2.58;;;0.60;;
52208;SDS011;38507;53.132;6.394;2023-07-20T09:56:54;2.58;;;0.80;;
52208;SDS011;38507;53.132;6.394;2023-07-20T09:59:20;2.08;;;0.70;;
52208;SDS011;38507;53.132;6.394;2023-07-20T10:01:46;5.30;;;0.63;;
52208;SDS011;38507;53.132;6.394;2023-07-20T10:04:14;2.65;;;0.60;;
52208;SDS011;38507;53.132;6.394;2023-07-20T10:06:43;3.58;;;0.77;;
52208;SDS011;38507;53.132;6.394;2023-07-20T10:09:13;3.38;;;0.65;;
52208;SDS011;38507;53.132;6.394;2023-07-20T10:11:42;3.92;;;0.60;;
52208;SDS011;38507;53.132;6.394;2023-07-20T10:14:14;4.78;;;1.10;;
52208;SDS011;38507;53.132;6.394;2023-07-20T10:16:56;3.42;;;1.10;;
52208;SDS011;38507;53.132;6.394;2023-07-20T10:19:44;3.22;;;0.73;;
52208;SDS011;38507;53.132;6.394;2023-07-20T10:22:17;3.85;;;0.60;;
52208;SDS011;38507;53.132;6.394;2023-07-20T10:24:48;1.77;;;0.55;;
52208;SDS011;38507;53.132;6.394;2023-07-20T10:27:15;4.63;;;0.80;;
52208;SDS011;38507;53.132;6.394;2023-07-20T10:29:41;3.60;;;1.13;;
52208;SDS011;38507;53.132;6.394;2023-07-20T10:32:07;5.50;;;0.82;;
52208;SDS011;38507;53.132;6.394;2023-07-20T10:34:33;4.20;;;0.80;;
52208;SDS011;38507;53.132;6.394;2023-07-20T10:36:59;3.78;;;0.57;;
52208;SDS011;38507;53.132;6.394;2023-07-20T10:39:26;4.40;;;0.80;;
52208;SDS011;38507;53.132;6.394;2023-07-20T10:42:08;2.10;;;0.70;;
52208;SDS011;38507;53.132;6.394;2023-07-20T10:44:38;3.13;;;0.70;;
52208;SDS011;38507;53.132;6.394;2023-07-20T10:47:11;1.65;;;0.60;;
52208;SDS011;38507;53.132;6.394;2023-07-20T10:49:57;2.85;;;0.90;;
52208;SDS011;38507;53.132;6.394;2023-07-20T10:52:25;2.05;;;0.63;;
52208;SDS011;38507;53.132;6.394;2023-07-20T10:54:51;3.20;;;0.80;;
52208;SDS011;38507;53.132;6.394;2023-07-20T10:57:29;2.90;;;0.57;;
52208;SDS011;38507;53.132;6.394;2023-07-20T11:00:11;2.60;;;0.75;;
52208;SDS011;38507;53.132;6.394;2023-07-20T11:02:45;3.47;;;0.60;;
52208;SDS011;38507;53.132;6.394;2023-07-20T11:08:03;5.35;;;0.85;;
52208;SDS011;38507;53.132;6.394;2023-07-20T11:10:36;2.55;;;0.80;;
52208;SDS011;38507;53.132;6.394;2023-07-20T11:13:18;4.28;;;1.00;;
52208;SDS011;38507;53.132;6.394;2023-07-20T11:15:45;4.50;;;1.00;;
52208;SDS011;38507;53.132;6.394;2023-07-20T11:18:21;4.40;;;0.82;;
52208;SDS011;38507;53.132;6.394;2023-07-20T11:20:50;2.30;;;0.70;;
52208;SDS011;38507;53.132;6.394;2023-07-20T11:23:16;3.28;;;0.80;;
52208;SDS011;38507;53.132;6.394;2023-07-20T11:25:42;2.55;;;0.70;;
52208;SDS011;38507;53.132;6.394;2023-07-20T11:28:08;3.28;;;0.73;;
52208;SDS011;38507;53.132;6.394;2023-07-20T11:30:36;6.70;;;0.95;;
52208;SDS011;38507;53.132;6.394;2023-07-20T11:33:05;3.15;;;0.93;;
52208;SDS011;38507;53.132;6.394;2023-07-20T11:35:41;4.53;;;1.20;;
52208;SDS011;38507;53.132;6.394;2023-07-20T11:38:09;2.33;;;0.70;;
52208;SDS011;38507;53.132;6.394;2023-07-20T11:40:35;5.05;;;0.98;;
52208;SDS011;38507;53.132;6.394;2023-07-20T11:43:00;4.05;;;1.58;;
52208;SDS011;38507;53.132;6.394;2023-07-20T11:45:26;2.97;;;0.70;;
52208;SDS011;38507;53.132;6.394;2023-07-20T11:47:58;2.75;;;0.80;;
52208;SDS011;38507;53.132;6.394;2023-07-20T11:50:24;3.88;;;0.73;;
52208;SDS011;38507;53.132;6.394;2023-07-20T11:52:50;3.33;;;0.77;;
52208;SDS011;38507;53.132;6.394;2023-07-20T11:55:15;6.35;;;0.90;;
52208;SDS011;38507;53.132;6.394;2023-07-20T11:57:41;3.58;;;0.70;;
52208;SDS011;38507;53.132;6.394;2023-07-20T12:00:26;3.78;;;0.80;;
52208;SDS011;38507;53.132;6.394;2023-07-20T12:02:53;2.95;;;0.80;;
52208;SDS011;38507;53.132;6.394;2023-07-20T12:05:18;2.80;;;1.13;;
52208;SDS011;38507;53.132;6.394;2023-07-20T12:07:44;2.80;;;1.10;;
52208;SDS011;38507;53.132;6.394;2023-07-20T12:10:11;2.33;;;0.80;;
52208;SDS011;38507;53.132;6.394;2023-07-20T12:12:38;4.35;;;1.02;;
52208;SDS011;38507;53.132;6.394;2023-07-20T12:15:14;4.20;;;0.82;;
52208;SDS011;38507;53.132;6.394;2023-07-20T12:17:42;3.47;;;0.90;;
52208;SDS011;38507;53.132;6.394;2023-07-20T12:20:10;4.47;;;0.80;;
52208;SDS011;38507;53.132;6.394;2023-07-20T12:22:40;8.30;;;1.33;;
52208;SDS011;38507;53.132;6.394;2023-07-20T12:25:08;4.43;;;0.73;;
52208;SDS011;38507;53.132;6.394;2023-07-20T12:27:37;1.55;;;0.60;;
52208;SDS011;38507;53.132;6.394;2023-07-20T12:30:04;2.40;;;0.77;;
52208;SDS011;38507;53.132;6.394;2023-07-20T12:32:31;3.90;;;1.10;;
52208;SDS011;38507;53.132;6.394;2023-07-20T12:34:56;3.92;;;1.10;;
52208;SDS011;38507;53.132;6.394;2023-07-20T12:37:22;7.43;;;1.00;;
52208;SDS011;38507;53.132;6.394;2023-07-20T12:39:48;5.78;;;0.80;;
52208;SDS011;38507;53.132;6.394;2023-07-20T12:42:14;5.55;;;0.90;;
52208;SDS011;38507;53.132;6.394;2023-07-20T12:44:42;2.08;;;0.80;;
52208;SDS011;38507;53.132;6.394;2023-07-20T12:47:08;3.83;;;0.90;;
52208;SDS011;38507;53.132;6.394;2023-07-20T12:49:34;3.70;;;1.05;;
52208;SDS011;38507;53.132;6.394;2023-07-20T12:51:59;3.10;;;0.80;;
52208;SDS011;38507;53.132;6.394;2023-07-20T12:54:25;3.78;;;1.13;;
52208;SDS011;38507;53.132;6.394;2023-07-20T12:56:51;2.45;;;0.70;;
52208;SDS011;38507;53.132;6.394;2023-07-20T12:59:16;5.45;;;0.73;;
52208;SDS011;38507;53.132;6.394;2023-07-20T13:01:42;1.30;;;0.60;;
52208;SDS011;38507;53.132;6.394;2023-07-20T13:04:09;4.88;;;0.75;;
52208;SDS011;38507;53.132;6.394;2023-07-20T13:06:35;1.92;;;0.60;;
52208;SDS011;38507;53.132;6.394;2023-07-20T13:09:01;3.47;;;0.65;;
52208;SDS011;38507;53.132;6.394;2023-07-20T13:11:26;6.97;;;1.10;;
52208;SDS011;38507;53.132;6.394;2023-07-20T13:13:52;3.20;;;1.02;;
52208;SDS011;38507;53.132;6.394;2023-07-20T13:16:18;4.10;;;1.00;;
52208;SDS011;38507;53.132;6.394;2023-07-20T13:18:43;3.03;;;1.08;;
52208;SDS011;38507;53.132;6.394;2023-07-20T13:21:09;4.80;;;1.10;;
52208;SDS011;38507;53.132;6.394;2023-07-20T13:23:36;6.18;;;0.93;;
52208;SDS011;38507;53.132;6.394;2023-07-20T13:26:02;3.95;;;1.35;;
52208;SDS011;38507;53.132;6.394;2023-07-20T13:28:29;2.45;;;0.70;;
52208;SDS011;38507;53.132;6.394;2023-07-20T13:30:55;2.83;;;0.80;;
52208;SDS011;38507;53.132;6.394;2023-07-20T13:33:21;4.80;;;0.82;;
52208;SDS011;38507;53.132;6.394;2023-07-20T13:35:46;2.15;;;0.82;;
52208;SDS011;38507;53.132;6.394;2023-07-20T13:38:12;2.67;;;0.73;;
52208;SDS011;38507;53.132;6.394;2023-07-20T13:40:38;3.58;;;0.90;;
52208;SDS011;38507;53.132;6.394;2023-07-20T13:43:03;2.80;;;0.90;;
52208;SDS011;38507;53.132;6.394;2023-07-20T13:45:29;4.88;;;1.02;;
52208;SDS011;38507;53.132;6.394;2023-07-20T13:47:55;2.88;;;0.90;;
52208;SDS011;38507;53.132;6.394;2023-07-20T13:50:20;2.97;;;0.80;;
52208;SDS011;38507;53.132;6.394;2023-07-20T13:52:46;4.97;;;0.82;;
52208;SDS011;38507;53.132;6.394;2023-07-20T13:55:12;3.17;;;0.60;;
52208;SDS011;38507;53.132;6.394;2023-07-20T13:57:38;0.75;;;0.40;;
52208;SDS011;38507;53.132;6.394;2023-07-20T14:00:04;6.55;;;0.70;;
52208;SDS011;38507;53.132;6.394;2023-07-20T14:02:30;1.35;;;0.50;;
52208;SDS011;38507;53.132;6.394;2023-07-20T14:04:55;1.88;;;0.45;;
52208;SDS011;38507;53.132;6.394;2023-07-20T14:07:22;2.33;;;0.52;;
52208;SDS011;38507;53.132;6.394;2023-07-20T14:09:47;3.88;;;0.90;;
52208;SDS011;38507;53.132;6.394;2023-07-20T14:12:13;3.85;;;0.65;;
52208;SDS011;38507;53.132;6.394;2023-07-20T14:14:39;3.88;;;0.45;;
52208;SDS011;38507;53.132;6.394;2023-07-20T14:17:08;1.80;;;0.63;;
52208;SDS011;38507;53.132;6.394;2023-07-20T14:19:36;4.38;;;0.70;;
52208;SDS011;38507;53.132;6.394;2023-07-20T14:22:02;4.47;;;0.90;;
52208;SDS011;38507;53.132;6.394;2023-07-20T14:24:28;5.40;;;0.70;;
52208;SDS011;38507;53.132;6.394;2023-07-20T14:26:54;4.53;;;0.85;;
52208;SDS011;38507;53.132;6.394;2023-07-20T14:29:20;4.70;;;1.13;;
52208;SDS011;38507;53.132;6.394;2023-07-20T14:31:46;3.90;;;0.60;;
52208;SDS011;38507;53.132;6.394;2023-07-20T14:34:18;2.88;;;1.13;;
52208;SDS011;38507;53.132;6.394;2023-07-20T14:36:44;3.92;;;0.73;;
52208;SDS011;38507;53.132;6.394;2023-07-20T14:39:10;4.53;;;1.00;;
52208;SDS011;38507;53.132;6.394;2023-07-20T14:41:35;3.85;;;0.85;;
52208;SDS011;38507;53.132;6.394;2023-07-20T14:44:02;4.68;;;0.88;;
52208;SDS011;38507;53.132;6.394;2023-07-20T14:46:27;2.75;;;0.93;;
52208;SDS011;38507;53.132;6.394;2023-07-20T14:48:53;4.30;;;0.52;;
52208;SDS011;38507;53.132;6.394;2023-07-20T14:51:19;2.53;;;0.73;;
52208;SDS011;38507;53.132;6.394;2023-07-20T14:53:44;4.90;;;1.23;;
52208;SDS011;38507;53.132;6.394;2023-07-20T14:56:10;6.03;;;0.85;;
52208;SDS011;38507;53.132;6.394;2023-07-20T14:58:35;4.20;;;0.93;;
52208;SDS011;38507;53.132;6.394;2023-07-20T15:01:01;3.35;;;0.88;;